aviador You're here:

FAHS Decoded Metar

HOEDSPRUIT in SOUTH AFRICA
Report Time2018-07-21 18:00:00
UTC Time2018-07-21 18:59:55
Flight Rules unknown UNKNOWN
Wind150° at 05 kt
W.Decomp.*RWY 18: 4.8 kt HW 1.4 kt LCW
RWY 09: 1.4 kt HW 4.8 kt RCW
W.Rank150° ranks 5
Current wind is below 150° avg. (8.0)
VisibilityN/A
Phenomena:N/A
Clouds:N/A
Expected CloudBase > 4,000 ft AGL from Temp-Dew spread
CeilingNone
Temp17°C (ISA +5)
Dew Point07°C (52% RH)
AAT14.5°C
QNH1029 hPa
Density Alt1,860 ft
Elevation1,640 ft
Report Wrong Elevation
Raw Report
METAR FAHS 211800Z AUTO 15005KT //// // ////// 17/07 Q1029=

Extra information for FAHS:More info

Airport Information Weather charts Add Link Nearby Venues Social comments